Mary Bennett — WDC4592 — position and weather

sailwx.info

Track history (hours):
 
Tides and Currents Weather Stations Pressure Air Temp Water Temp Dewpoint Dewpoint Depression Visibility Wind Speed Wind Dir Waves Ship Positions

Mary Bennett

Owner: Savannah Marine Services, Savannah, GA. More information available from US FCC via Universal Licensing System and Coast Guard Vessel Documentation Center.

Last reported at 2016-Apr-28 20:33 UTC. Time now 2016-Apr-29 01:59 UTC.
Position N 32°05' W 081°06'.

Length 21 m; draft 2.3 m.

Type: Tug. MMSI: 367027140.

Date/timePositionNaut miles runAvg speedWind from/ knotsBaromVisibWave heightAir tempDewpointWater temp
2016-Apr-28 20:33N 32°05' W 081°06'1 1.0
2016-Apr-28 19:33N 32°06' W 081°07'0 0.0
2016-Apr-28 18:33N 32°06' W 081°07'0 0.0
2016-Apr-28 17:33N 32°06' W 081°07'0 0.0
2016-Apr-28 16:33N 32°06' W 081°07'0 0.1
2016-Apr-28 15:33N 32°06' W 081°07'1 1.3
2016-Apr-28 14:33N 32°05' W 081°05'1 1.3
2016-Apr-28 13:33N 32°06' W 081°07'0 0.1
2016-Apr-28 12:33N 32°06' W 081°07'1 0.1
2016-Apr-27 20:12N 32°05' W 081°06'1 1.5
2016-Apr-27 19:33N 32°06' W 081°07'0 0.1
2016-Apr-27 18:33N 32°06' W 081°07'0 0.0
2016-Apr-27 17:33N 32°06' W 081°07'0 0.0
2016-Apr-27 16:33N 32°06' W 081°07'0 0.0
2016-Apr-27 15:33N 32°06' W 081°07'0 0.0
2016-Apr-27 14:33N 32°06' W 081°07'0 0.0
2016-Apr-27 13:33N 32°06' W 081°07'1 1.1
2016-Apr-27 12:33N 32°05' W 081°06'0 0.0
2016-Apr-26 18:05N 32°05' W 081°06'1 1.7
2016-Apr-26 17:33N 32°05' W 081°05'4 4.4
2016-Apr-26 16:34N 32°04' W 080°60'3 3.3
2016-Apr-26 15:33N 32°01' W 081°00'5 4.8
2016-Apr-26 14:34N 31°56' W 080°59'0 0.1
2016-Apr-26 13:33N 31°56' W 080°59'1 0.7
2016-Apr-26 12:33N 31°56' W 080°58'3 2.9
2016-Apr-26 11:34N 31°59' W 081°00'5 4.7
2016-Apr-26 10:34N 32°03' W 081°02'3 3.4
2016-Apr-26 09:34N 32°06' W 080°60'5 5.2
2016-Apr-26 08:33N 32°05' W 081°06'0 0.0
2016-Apr-26 07:34N 32°05' W 081°06'0 0.0
2016-Apr-26 06:33N 32°05' W 081°06'0 0.0
2016-Apr-26 05:34N 32°05' W 081°06'0 0.0
2016-Apr-26 04:34N 32°05' W 081°06'0 0.0
2016-Apr-26 03:34N 32°05' W 081°06'0 0.0
2016-Apr-26 02:34N 32°05' W 081°06'0 0.0
2016-Apr-26 01:33N 32°05' W 081°06'0 0.0
2016-Apr-26 00:33N 32°05' W 081°06'0 0.0
2016-Apr-25 23:33N 32°05' W 081°06'0 0.0
2016-Apr-25 22:33N 32°05' W 081°06'2 2.4
2016-Apr-25 21:34N 32°05' W 081°03'0 0.1
2016-Apr-25 20:34N 32°05' W 081°03'0 0.2
2016-Apr-25 19:34N 32°05' W 081°03'  
Track history (hours):
 
Tides and Currents Weather Stations Pressure Air Temp Water Temp Dewpoint Dewpoint Depression Visibility Wind Speed Wind Dir Waves Ship Positions

Mary Bennett

Owner: Savannah Marine Services, Savannah, GA. More information available from US FCC via Universal Licensing System and Coast Guard Vessel Documentation Center.

Last reported at 2016-Apr-28 20:33 UTC. Time now 2016-Apr-29 01:59 UTC.
Position N 32°05' W 081°06'.

Length 21 m; draft 2.3 m.

Type: Tug. MMSI: 367027140.

Date/timePositionNaut miles runAvg speedWind from/ knotsBaromVisibWave heightAir tempDewpointWater temp
2016-Apr-28 20:33N 32°05' W 081°06'1 1.0
2016-Apr-28 19:33N 32°06' W 081°07'0 0.0
2016-Apr-28 18:33N 32°06' W 081°07'0 0.0
2016-Apr-28 17:33N 32°06' W 081°07'0 0.0
2016-Apr-28 16:33N 32°06' W 081°07'0 0.1
2016-Apr-28 15:33N 32°06' W 081°07'1 1.3
2016-Apr-28 14:33N 32°05' W 081°05'1 1.3
2016-Apr-28 13:33N 32°06' W 081°07'0 0.1
2016-Apr-28 12:33N 32°06' W 081°07'1 0.1
2016-Apr-27 20:12N 32°05' W 081°06'1 1.5
2016-Apr-27 19:33N 32°06' W 081°07'0 0.1
2016-Apr-27 18:33N 32°06' W 081°07'0 0.0
2016-Apr-27 17:33N 32°06' W 081°07'0 0.0
2016-Apr-27 16:33N 32°06' W 081°07'0 0.0
2016-Apr-27 15:33N 32°06' W 081°07'0 0.0
2016-Apr-27 14:33N 32°06' W 081°07'0 0.0
2016-Apr-27 13:33N 32°06' W 081°07'1 1.1
2016-Apr-27 12:33N 32°05' W 081°06'0 0.0
2016-Apr-26 18:05N 32°05' W 081°06'1 1.7
2016-Apr-26 17:33N 32°05' W 081°05'4 4.4
2016-Apr-26 16:34N 32°04' W 080°60'3 3.3
2016-Apr-26 15:33N 32°01' W 081°00'5 4.8
2016-Apr-26 14:34N 31°56' W 080°59'0 0.1
2016-Apr-26 13:33N 31°56' W 080°59'1 0.7
2016-Apr-26 12:33N 31°56' W 080°58'3 2.9
2016-Apr-26 11:34N 31°59' W 081°00'5 4.7
2016-Apr-26 10:34N 32°03' W 081°02'3 3.4
2016-Apr-26 09:34N 32°06' W 080°60'5 5.2
2016-Apr-26 08:33N 32°05' W 081°06'0 0.0
2016-Apr-26 07:34N 32°05' W 081°06'0 0.0
2016-Apr-26 06:33N 32°05' W 081°06'0 0.0
2016-Apr-26 05:34N 32°05' W 081°06'0 0.0
2016-Apr-26 04:34N 32°05' W 081°06'0 0.0
2016-Apr-26 03:34N 32°05' W 081°06'0 0.0
2016-Apr-26 02:34N 32°05' W 081°06'0 0.0
2016-Apr-26 01:33N 32°05' W 081°06'0 0.0
2016-Apr-26 00:33N 32°05' W 081°06'0 0.0
2016-Apr-25 23:33N 32°05' W 081°06'0 0.0
2016-Apr-25 22:33N 32°05' W 081°06'2 2.4
2016-Apr-25 21:34N 32°05' W 081°03'0 0.1
2016-Apr-25 20:34N 32°05' W 081°03'0 0.2
2016-Apr-25 19:34N 32°05' W 081°03'  

Dump ship's entire track history